createdAt,value
2019-04-29T00:00:28.938Z,91.18
2019-04-29T00:01:28.942Z,91.08
2019-04-29T00:02:28.925Z,90.87
2019-04-29T00:03:28.907Z,90.97
2019-04-29T00:04:28.899Z,91.18
2019-04-29T00:05:28.879Z,91.49
2019-04-29T00:06:28.879Z,91.60
2019-04-29T00:07:28.870Z,91.49
2019-04-29T00:08:28.865Z,91.43
2019-04-29T00:09:30.933Z,91.33
2019-04-29T00:10:28.832Z,91.33
2019-04-29T00:11:28.821Z,91.33
2019-04-29T00:12:28.829Z,91.33
2019-04-29T00:13:28.807Z,91.22
2019-04-29T00:14:28.790Z,91.22
2019-04-29T00:15:28.782Z,91.12
2019-04-29T00:16:28.782Z,91.12
2019-04-29T00:17:28.753Z,91.53
2019-04-29T00:18:28.760Z,91.85
2019-04-29T00:19:28.741Z,91.85
2019-04-29T00:20:28.718Z,92.05
2019-04-29T00:21:28.710Z,92.26
2019-04-29T00:22:28.757Z,92.36
2019-04-29T00:23:28.701Z,92.26
2019-04-29T00:24:28.677Z,92.05
2019-04-29T00:25:28.657Z,91.85
2019-04-29T00:26:28.649Z,91.74
2019-04-29T00:27:28.660Z,91.64
2019-04-29T00:28:28.628Z,91.64
2019-04-29T00:29:28.631Z,91.95
2019-04-29T00:30:28.617Z,91.85
2019-04-29T00:31:28.606Z,92.16
2019-04-29T00:32:28.609Z,92.36
2019-04-29T00:33:28.581Z,92.16
2019-04-29T00:34:28.568Z,91.95
2019-04-29T00:35:28.570Z,91.74
2019-04-29T00:36:28.557Z,91.64
2019-04-29T00:37:28.547Z,91.58
2019-04-29T00:38:28.536Z,91.58
2019-04-29T00:39:28.508Z,91.47
2019-04-29T00:40:28.504Z,91.47
2019-04-29T00:41:28.510Z,91.58
2019-04-29T00:42:28.479Z,91.68
2019-04-29T00:43:28.499Z,91.68
2019-04-29T00:44:28.469Z,91.68
2019-04-29T00:45:28.472Z,91.68
2019-04-29T00:46:28.435Z,91.89
2019-04-29T00:47:28.435Z,92.10
2019-04-29T00:48:28.433Z,92.10
2019-04-29T00:49:28.425Z,92.10
2019-04-29T00:50:28.385Z,92.10
2019-04-29T00:51:28.386Z,91.89
2019-04-29T00:52:28.366Z,91.78
2019-04-29T00:53:28.361Z,91.89
2019-04-29T00:54:28.356Z,91.89
2019-04-29T00:55:28.355Z,91.89
2019-04-29T00:56:28.337Z,92.30
2019-04-29T00:57:28.318Z,92.72
2019-04-29T00:58:28.307Z,93.02
2019-04-29T00:59:28.307Z,92.93
2019-04-29T01:00:28.289Z,92.72
2019-04-29T01:01:28.274Z,92.51
2019-04-29T01:02:28.264Z,92.30
2019-04-29T01:03:28.253Z,92.20
2019-04-29T01:04:28.245Z,91.99
2019-04-29T01:05:28.222Z,91.78
2019-04-29T01:06:28.226Z,91.68
2019-04-29T01:07:28.206Z,91.68
2019-04-29T01:08:28.204Z,91.68
2019-04-29T01:09:28.184Z,91.99
2019-04-29T01:10:28.174Z,92.20
2019-04-29T01:11:28.174Z,92.61
2019-04-29T01:12:28.153Z,92.61
2019-04-29T01:13:28.133Z,92.41
2019-04-29T01:14:28.146Z,92.30
2019-04-29T01:15:28.123Z,92.20
2019-04-29T01:16:28.120Z,92.20
2019-04-29T01:17:28.105Z,92.14
2019-04-29T01:18:28.103Z,92.24
2019-04-29T01:19:28.077Z,92.24
2019-04-29T01:20:28.075Z,92.30
2019-04-29T01:21:28.062Z,92.41
2019-04-29T01:22:28.061Z,92.51
2019-04-29T01:23:28.035Z,92.61
2019-04-29T01:24:28.027Z,92.72
2019-04-29T01:25:28.017Z,92.55
2019-04-29T01:26:28.015Z,92.45
2019-04-29T01:27:27.997Z,92.24
2019-04-29T01:28:27.981Z,92.03
2019-04-29T01:29:27.975Z,91.93
2019-04-29T01:30:27.952Z,91.93
2019-04-29T01:31:27.962Z,92.14
2019-04-29T01:32:27.932Z,92.35
2019-04-29T01:33:27.935Z,92.45
2019-04-29T01:34:27.920Z,92.35
2019-04-29T01:35:27.914Z,92.45
2019-04-29T01:36:27.913Z,92.66
2019-04-29T01:37:27.880Z,92.55
2019-04-29T01:38:27.862Z,92.45
2019-04-29T01:39:27.863Z,92.45
2019-04-29T01:40:27.851Z,92.66
2019-04-29T01:41:27.865Z,92.66
2019-04-29T01:42:27.831Z,92.86
2019-04-29T01:43:27.821Z,92.86
2019-04-29T01:44:27.813Z,92.97
2019-04-29T01:45:27.791Z,93.07
2019-04-29T01:46:27.771Z,92.76
2019-04-29T01:47:27.793Z,92.55
2019-04-29T01:48:27.761Z,92.66
2019-04-29T01:49:27.751Z,92.59
2019-04-29T01:50:27.743Z,92.38
2019-04-29T01:51:27.733Z,92.28
2019-04-29T01:52:27.720Z,92.18
2019-04-29T01:53:27.710Z,92.28
2019-04-29T01:54:27.695Z,92.28
2019-04-29T01:55:27.679Z,92.18
2019-04-29T01:56:27.671Z,92.49
2019-04-29T01:57:27.672Z,92.38
2019-04-29T01:58:27.683Z,92.38
2019-04-29T01:59:27.677Z,92.28
2019-04-29T02:00:27.650Z,92.07
2019-04-29T02:01:27.621Z,91.86
2019-04-29T02:02:27.599Z,91.66
2019-04-29T02:03:27.602Z,91.70
2019-04-29T02:04:27.630Z,91.91
2019-04-29T02:05:27.599Z,92.43
2019-04-29T02:06:27.560Z,92.53
2019-04-29T02:07:27.582Z,92.63
2019-04-29T02:08:27.539Z,92.63
2019-04-29T02:09:27.539Z,92.63
2019-04-29T02:10:27.541Z,92.94
2019-04-29T02:11:27.511Z,93.16
2019-04-29T02:12:27.501Z,93.05
2019-04-29T02:13:27.500Z,92.84
2019-04-29T02:14:27.499Z,92.63
2019-04-29T02:15:27.471Z,92.53
2019-04-29T02:16:27.459Z,92.53
2019-04-29T02:17:27.451Z,92.74
2019-04-29T02:18:27.441Z,92.63
2019-04-29T02:19:27.419Z,92.43
2019-04-29T02:20:27.430Z,92.53
2019-04-29T02:21:27.409Z,92.43
2019-04-29T02:22:27.385Z,92.32
2019-04-29T02:23:27.368Z,92.32
2019-04-29T02:24:27.377Z,92.53
2019-04-29T02:25:27.357Z,92.53
2019-04-29T02:26:27.337Z,92.32
2019-04-29T02:27:27.329Z,92.32
2019-04-29T02:28:27.339Z,92.32
2019-04-29T02:29:27.307Z,92.22
2019-04-29T02:30:27.342Z,92.01
2019-04-29T02:31:27.321Z,91.91
2019-04-29T02:32:27.289Z,92.01
2019-04-29T02:33:27.280Z,92.22
2019-04-29T02:34:27.259Z,92.11
2019-04-29T02:35:27.277Z,92.26
2019-04-29T02:36:29.921Z,92.26
2019-04-29T02:37:27.266Z,92.47
2019-04-29T02:38:27.237Z,92.88
2019-04-29T02:39:27.219Z,92.99
2019-04-29T02:40:27.196Z,92.78
2019-04-29T02:41:27.192Z,92.57
2019-04-29T02:42:27.192Z,92.47
2019-04-29T02:43:27.158Z,92.57
2019-04-29T02:44:27.177Z,92.68
2019-04-29T02:45:27.172Z,92.47
2019-04-29T02:46:27.129Z,92.43
2019-04-29T02:47:27.131Z,92.47
2019-04-29T02:48:30.259Z,92.16
2019-04-29T02:49:28.128Z,91.95
2019-04-29T02:50:27.101Z,91.64
2019-04-29T02:51:27.079Z,91.74
2019-04-29T02:52:27.066Z,92.05
2019-04-29T02:53:27.055Z,92.47
2019-04-29T02:54:27.048Z,92.57
2019-04-29T02:55:27.033Z,92.78
2019-04-29T02:56:27.028Z,92.88
2019-04-29T02:57:27.028Z,92.78
2019-04-29T02:58:26.985Z,92.57
2019-04-29T02:59:26.986Z,92.41
2019-04-29T03:00:26.987Z,92.20
2019-04-29T03:01:26.963Z,92.20
2019-04-29T03:02:26.959Z,92.51
2019-04-29T03:03:26.987Z,92.82
2019-04-29T03:04:26.947Z,93.03
2019-04-29T03:05:26.918Z,92.93
2019-04-29T03:06:26.914Z,92.82
2019-04-29T03:07:26.905Z,92.82
2019-04-29T03:08:26.907Z,92.82
2019-04-29T03:09:26.875Z,92.51
2019-04-29T03:10:26.876Z,92.72
2019-04-29T03:11:26.866Z,92.82
2019-04-29T03:12:26.888Z,92.72
2019-04-29T03:13:26.854Z,92.61
2019-04-29T03:14:26.844Z,92.61
2019-04-29T03:15:26.844Z,92.57
2019-04-29T03:16:26.815Z,92.47
2019-04-29T03:17:26.833Z,92.36
2019-04-29T03:18:26.796Z,92.36
2019-04-29T03:19:26.776Z,92.36
2019-04-29T03:20:26.753Z,92.16
2019-04-29T03:21:26.753Z,92.05
2019-04-29T03:22:26.732Z,92.05
2019-04-29T03:23:26.745Z,91.95
2019-04-29T03:24:26.821Z,92.05
2019-04-29T03:25:26.704Z,91.99
2019-04-29T03:26:26.719Z,92.10
2019-04-29T03:27:26.702Z,92.30
2019-04-29T03:28:26.715Z,92.51
2019-04-29T03:29:26.680Z,92.61
2019-04-29T03:30:26.676Z,92.61
2019-04-29T03:31:26.643Z,92.72
2019-04-29T03:32:26.626Z,92.61
2019-04-29T03:33:26.647Z,92.61
2019-04-29T03:34:26.654Z,92.72
2019-04-29T03:35:26.612Z,92.61
2019-04-29T03:36:26.611Z,92.72
2019-04-29T03:37:26.583Z,92.82
2019-04-29T03:38:26.595Z,92.82
2019-04-29T03:39:26.612Z,92.72
2019-04-29T03:40:26.545Z,92.72
2019-04-29T03:41:26.534Z,92.93
2019-04-29T03:42:26.542Z,92.82
2019-04-29T03:43:26.514Z,92.61
2019-04-29T03:44:26.566Z,92.41
2019-04-29T03:45:26.503Z,92.51
2019-04-29T03:46:26.504Z,92.51
2019-04-29T03:47:26.462Z,92.41
2019-04-29T03:48:26.464Z,92.30
2019-04-29T03:49:26.471Z,92.30
2019-04-29T03:50:26.494Z,92.20
2019-04-29T03:51:26.444Z,92.20
2019-04-29T03:52:26.411Z,92.20
2019-04-29T03:53:28.472Z,92.41
2019-04-29T03:54:26.401Z,92.41
2019-04-29T03:55:38.824Z,92.30
2019-04-29T03:56:27.383Z,92.30
2019-04-29T03:57:26.369Z,92.41
2019-04-29T03:58:26.350Z,92.72
2019-04-29T03:59:26.339Z,92.61
2019-04-29T04:00:26.345Z,92.51
2019-04-29T04:01:26.337Z,92.51
2019-04-29T04:02:26.330Z,92.51
2019-04-29T04:03:26.289Z,92.51
2019-04-29T04:04:26.280Z,92.51
2019-04-29T04:05:26.289Z,92.93
2019-04-29T04:06:26.265Z,92.93
2019-04-29T04:07:26.264Z,92.82
2019-04-29T04:08:26.241Z,92.82
2019-04-29T04:09:26.239Z,92.82
2019-04-29T04:10:26.235Z,92.82
2019-04-29T04:11:26.234Z,92.82
2019-04-29T04:12:26.220Z,92.72
2019-04-29T04:13:26.191Z,92.51
2019-04-29T04:14:26.179Z,92.41
2019-04-29T04:15:26.191Z,92.41
2019-04-29T04:16:26.169Z,92.30
2019-04-29T04:17:26.150Z,92.20
2019-04-29T04:18:26.141Z,92.20
2019-04-29T04:19:26.131Z,92.51
2019-04-29T04:20:26.121Z,92.82
2019-04-29T04:21:26.149Z,92.82
2019-04-29T04:22:26.090Z,92.82
2019-04-29T04:23:26.078Z,92.72
2019-04-29T04:24:26.069Z,92.51
2019-04-29T04:25:26.079Z,92.51
2019-04-29T04:26:26.038Z,92.51
2019-04-29T04:27:26.069Z,92.51
2019-04-29T04:28:26.034Z,92.41
2019-04-29T04:29:26.016Z,92.41
2019-04-29T04:30:26.025Z,92.51
2019-04-29T04:31:26.006Z,92.51
2019-04-29T04:32:25.988Z,92.51
2019-04-29T04:33:25.979Z,92.51
2019-04-29T04:34:25.977Z,92.61
2019-04-29T04:35:25.962Z,92.68
2019-04-29T04:36:25.933Z,92.78
2019-04-29T04:37:25.942Z,92.78
2019-04-29T04:38:25.927Z,92.78
2019-04-29T04:39:25.943Z,92.88
2019-04-29T04:40:25.923Z,92.99
2019-04-29T04:41:25.888Z,92.88
2019-04-29T04:42:29.583Z,92.78
2019-04-29T04:43:25.867Z,92.57
2019-04-29T04:44:25.859Z,92.47
2019-04-29T04:45:25.857Z,92.43
2019-04-29T04:46:25.824Z,92.53
2019-04-29T04:47:25.806Z,92.32
2019-04-29T04:48:25.823Z,92.11
2019-04-29T04:49:25.805Z,92.01
2019-04-29T04:50:25.784Z,91.91
2019-04-29T04:51:25.797Z,91.91
2019-04-29T04:52:25.775Z,91.91
2019-04-29T04:53:25.797Z,91.86
2019-04-29T04:54:25.747Z,91.86
2019-04-29T04:55:25.725Z,91.55
2019-04-29T04:56:25.728Z,91.45
2019-04-29T04:57:25.711Z,91.20
2019-04-29T04:58:25.745Z,91.20
2019-04-29T04:59:25.706Z,91.10
2019-04-29T05:00:25.695Z,91.00
2019-04-29T05:01:25.671Z,91.00
2019-04-29T05:02:25.654Z,90.89
2019-04-29T05:03:25.643Z,90.79
2019-04-29T05:04:25.643Z,90.69
2019-04-29T05:05:25.615Z,90.69
2019-04-29T05:06:25.603Z,90.69
2019-04-29T05:07:25.616Z,90.75
2019-04-29T05:08:25.582Z,90.85
2019-04-29T05:09:25.572Z,91.06
2019-04-29T05:10:25.573Z,91.06
2019-04-29T05:11:25.614Z,91.06
2019-04-29T05:12:25.545Z,90.91
2019-04-29T05:13:28.448Z,90.81
2019-04-29T05:14:25.531Z,90.81
2019-04-29T05:15:25.511Z,90.81
2019-04-29T05:16:25.512Z,90.70
2019-04-29T05:17:25.505Z,90.66
2019-04-29T05:18:25.493Z,90.45
2019-04-29T05:19:25.471Z,90.35
2019-04-29T05:20:25.451Z,90.25
2019-04-29T05:21:25.453Z,90.10
2019-04-29T05:22:25.431Z,90.10
2019-04-29T05:23:25.421Z,90.00
2019-04-29T05:24:25.443Z,89.86
2019-04-29T05:25:25.404Z,89.65
2019-04-29T05:26:25.381Z,89.54
2019-04-29T05:27:25.382Z,89.44
2019-04-29T05:28:25.360Z,89.40
2019-04-29T05:29:28.474Z,89.40
2019-04-29T05:30:25.363Z,89.50
2019-04-29T05:31:25.344Z,89.29
2019-04-29T05:32:25.319Z,89.15
2019-04-29T05:33:25.309Z,89.15
2019-04-29T05:34:25.318Z,89.25
2019-04-29T05:35:26.448Z,89.01
2019-04-29T05:36:25.284Z,88.90
2019-04-29T05:37:25.280Z,88.80
2019-04-29T05:38:25.270Z,88.59
2019-04-29T05:39:25.258Z,88.45
2019-04-29T05:40:25.239Z,88.45
2019-04-29T05:41:25.230Z,88.55
2019-04-29T05:42:25.230Z,88.41
2019-04-29T05:43:27.070Z,88.31
2019-04-29T05:44:26.200Z,88.61
2019-04-29T05:45:25.189Z,88.68
2019-04-29T05:46:25.201Z,88.78
2019-04-29T05:47:25.171Z,88.78
2019-04-29T05:48:27.606Z,88.32
2019-04-29T05:49:26.137Z,88.12
2019-04-29T05:50:25.139Z,87.87
2019-04-29T05:51:27.335Z,87.66
2019-04-29T05:52:25.134Z,87.56
2019-04-29T05:53:25.111Z,87.52
2019-04-29T05:54:26.894Z,87.42
2019-04-29T05:55:26.091Z,87.52
2019-04-29T05:56:25.089Z,87.48
2019-04-29T05:57:25.780Z,87.27
2019-04-29T05:58:25.044Z,87.27
2019-04-29T05:59:25.037Z,87.34
2019-04-29T06:00:25.043Z,87.34
2019-04-29T06:01:25.031Z,87.34
2019-04-29T06:02:33.103Z,87.30
2019-04-29T06:03:25.989Z,87.09
2019-04-29T06:04:24.975Z,86.99
2019-04-29T06:05:24.978Z,86.64
2019-04-29T06:06:24.974Z,86.43
2019-04-29T06:07:26.823Z,86.13
2019-04-29T06:08:24.938Z,86.02
2019-04-29T06:09:24.916Z,85.71
2019-04-29T06:10:24.957Z,85.98
2019-04-29T06:11:24.919Z,86.08
2019-04-29T06:12:24.888Z,85.36
2019-04-29T06:13:24.885Z,85.47
2019-04-29T06:14:24.868Z,85.02
2019-04-29T06:15:24.867Z,84.71
2019-04-29T06:16:24.851Z,85.02
2019-04-29T06:17:24.847Z,84.91
2019-04-29T06:18:24.837Z,84.81
2019-04-29T06:19:24.814Z,85.12
2019-04-29T06:20:24.817Z,85.33
2019-04-29T06:21:24.915Z,85.33
2019-04-29T06:22:24.775Z,84.81
2019-04-29T06:23:24.781Z,84.77
2019-04-29T06:24:24.767Z,84.98
2019-04-29T06:25:24.757Z,84.98
2019-04-29T06:26:24.815Z,84.88
2019-04-29T06:27:24.736Z,84.53
2019-04-29T06:28:26.362Z,84.63
2019-04-29T06:29:24.766Z,84.63
2019-04-29T06:30:24.707Z,83.81
2019-04-29T06:31:24.685Z,83.81
2019-04-29T06:32:26.354Z,83.81
2019-04-29T06:33:29.194Z,83.70
2019-04-29T06:34:25.644Z,84.01
2019-04-29T06:35:24.634Z,84.01
2019-04-29T06:36:24.634Z,84.42
2019-04-29T06:37:24.645Z,84.32
2019-04-29T06:38:24.615Z,84.63
2019-04-29T06:39:24.610Z,84.32
2019-04-29T06:40:24.573Z,84.32
2019-04-29T06:41:24.574Z,83.15
2019-04-29T06:42:24.552Z,83.56
2019-04-29T06:43:28.409Z,83.26
2019-04-29T06:44:24.542Z,83.56
2019-04-29T06:45:24.534Z,83.77
2019-04-29T06:46:24.514Z,83.15
2019-04-29T06:47:24.522Z,82.64
2019-04-29T06:48:24.523Z,82.09
2019-04-29T06:49:24.483Z,82.81
2019-04-29T06:50:24.484Z,83.01
2019-04-29T06:51:24.452Z,82.91
2019-04-29T06:52:24.521Z,82.77
2019-04-29T06:53:24.441Z,81.74
2019-04-29T06:54:24.442Z,82.15
2019-04-29T06:55:24.423Z,81.50
2019-04-29T06:56:24.422Z,80.78
2019-04-29T06:57:24.400Z,79.66
2019-04-29T06:58:24.391Z,80.07
2019-04-29T06:59:24.382Z,80.17
2019-04-29T07:00:24.375Z,79.93
2019-04-29T07:01:24.372Z,78.70
2019-04-29T07:02:24.358Z,79.11
2019-04-29T07:03:25.586Z,79.82
2019-04-29T07:04:24.331Z,79.41
2019-04-29T07:05:24.301Z,79.62
2019-04-29T07:06:24.291Z,79.62
2019-04-29T07:07:24.281Z,80.33
2019-04-29T07:08:24.271Z,80.54
2019-04-29T07:09:24.294Z,79.89
2019-04-29T07:10:27.131Z,79.99
2019-04-29T07:11:24.253Z,79.89
2019-04-29T07:12:24.233Z,79.58
2019-04-29T07:13:24.603Z,79.27
2019-04-29T07:14:24.214Z,79.27
2019-04-29T07:15:24.213Z,79.48
2019-04-29T07:16:26.876Z,79.27
2019-04-29T07:17:24.179Z,78.86
2019-04-29T07:18:24.171Z,78.63
2019-04-29T07:19:26.708Z,78.52
2019-04-29T07:20:24.162Z,78.63
2019-04-29T07:21:24.143Z,78.69
2019-04-29T07:22:25.723Z,77.76
2019-04-29T07:23:24.109Z,77.46
2019-04-29T07:24:24.102Z,75.93
2019-04-29T07:25:24.582Z,76.20
2019-04-29T07:26:24.084Z,76.61
2019-04-29T07:27:24.070Z,76.98
2019-04-29T07:28:24.058Z,76.06
2019-04-29T07:29:29.693Z,75.45
2019-04-29T07:30:25.051Z,75.45
2019-04-29T07:31:28.425Z,75.24
2019-04-29T07:32:24.999Z,75.04
2019-04-29T07:33:24.479Z,75.62
2019-04-29T07:34:23.988Z,74.90
2019-04-29T07:35:23.980Z,75.51
2019-04-29T07:36:24.030Z,75.00
2019-04-29T07:37:23.958Z,74.80
2019-04-29T07:38:23.951Z,74.46
2019-04-29T07:39:26.833Z,74.35
2019-04-29T07:40:24.919Z,73.77
2019-04-29T07:41:23.921Z,74.46
2019-04-29T07:42:25.054Z,74.80
2019-04-29T07:43:24.888Z,73.77
2019-04-29T07:44:23.882Z,74.46
2019-04-29T07:45:28.033Z,74.05
2019-04-29T07:46:24.872Z,73.23
2019-04-29T07:47:24.975Z,73.74
2019-04-29T07:48:24.868Z,73.84
2019-04-29T07:49:23.818Z,73.33
2019-04-29T07:50:26.798Z,72.00
2019-04-29T07:51:23.837Z,72.11
2019-04-29T07:52:23.788Z,71.80
2019-04-29T07:53:34.484Z,71.91
2019-04-29T07:54:24.767Z,72.41
2019-04-29T07:55:26.084Z,71.80
2019-04-29T07:56:24.791Z,72.82
2019-04-29T07:57:23.739Z,72.62
2019-04-29T07:58:27.360Z,72.82
2019-04-29T07:59:23.707Z,72.55
2019-04-29T08:00:23.711Z,72.75
2019-04-29T08:01:24.650Z,72.21
2019-04-29T08:02:23.695Z,73.03
2019-04-29T08:03:23.668Z,72.92
2019-04-29T08:04:23.649Z,73.54
2019-04-29T08:05:23.658Z,71.77
2019-04-29T08:06:23.657Z,71.67
2019-04-29T08:07:23.636Z,71.77
2019-04-29T08:08:23.607Z,71.43
2019-04-29T08:09:23.612Z,70.75
2019-04-29T08:10:27.661Z,70.54
2019-04-29T08:11:24.608Z,71.67
2019-04-29T08:12:23.588Z,71.84
2019-04-29T08:13:23.568Z,71.63
2019-04-29T08:14:23.546Z,71.29
2019-04-29T08:15:23.549Z,70.78
2019-04-29T08:16:23.538Z,71.60
2019-04-29T08:17:23.526Z,71.09
2019-04-29T08:18:23.517Z,70.07
2019-04-29T08:19:24.772Z,69.63
2019-04-29T08:20:24.498Z,68.61
2019-04-29T08:21:23.475Z,68.20
2019-04-29T08:22:27.813Z,68.64
2019-04-29T08:23:24.458Z,69.56
2019-04-29T08:24:23.434Z,67.41
2019-04-29T08:25:26.053Z,67.82
2019-04-29T08:26:23.417Z,69.05
2019-04-29T08:27:23.427Z,69.35
2019-04-29T08:28:23.426Z,68.91
2019-04-29T08:29:23.391Z,68.20
2019-04-29T08:30:23.365Z,68.51
2019-04-29T08:31:23.355Z,68.27
2019-04-29T08:32:23.358Z,67.66
2019-04-29T08:33:23.347Z,66.74
2019-04-29T08:34:24.372Z,67.66
2019-04-29T08:35:23.325Z,67.66
2019-04-29T08:36:23.317Z,66.94
2019-04-29T08:37:24.930Z,66.41
2019-04-29T08:38:23.275Z,64.50
2019-04-29T08:39:25.116Z,65.31
2019-04-29T08:40:24.286Z,65.69
2019-04-29T08:41:28.536Z,64.57
2019-04-29T08:42:24.234Z,64.26
2019-04-29T08:43:23.237Z,63.53
2019-04-29T08:44:23.212Z,62.43
2019-04-29T08:45:23.236Z,61.93
2019-04-29T08:46:23.227Z,62.54
2019-04-29T08:47:30.529Z,63.01
2019-04-29T08:48:24.176Z,61.49
2019-04-29T08:49:23.163Z,60.70
2019-04-29T08:50:23.154Z,61.08
2019-04-29T08:51:23.166Z,61.29
2019-04-29T08:52:23.134Z,61.69
2019-04-29T08:53:23.116Z,62.40
2019-04-29T08:54:23.106Z,60.47
2019-04-29T08:55:26.607Z,61.29
2019-04-29T08:56:24.097Z,61.36
2019-04-29T08:57:23.064Z,61.25
2019-04-29T08:58:23.076Z,61.53
2019-04-29T08:59:24.405Z,60.72
2019-04-29T09:00:23.064Z,60.72
2019-04-29T09:01:24.702Z,60.69
2019-04-29T09:02:34.468Z,61.10
2019-04-29T09:03:24.419Z,60.76
2019-04-29T09:04:23.022Z,59.82
2019-04-29T09:05:22.997Z,60.13
2019-04-29T09:06:22.982Z,58.47
2019-04-29T09:07:23.232Z,58.54
2019-04-29T09:08:22.998Z,59.36
2019-04-29T09:09:28.997Z,58.54
2019-04-29T09:10:23.929Z,58.52
2019-04-29T09:11:22.914Z,57.20
2019-04-29T09:12:24.185Z,56.79
2019-04-29T09:13:22.905Z,56.72
2019-04-29T09:14:22.917Z,57.12
2019-04-29T09:15:22.885Z,56.52
2019-04-29T09:16:22.889Z,56.92
2019-04-29T09:17:22.853Z,57.84
2019-04-29T09:18:22.864Z,55.80
2019-04-29T09:19:22.835Z,56.85
2019-04-29T09:20:22.825Z,57.33
2019-04-29T09:21:22.830Z,57.03
2019-04-29T09:22:22.806Z,56.92
2019-04-29T09:23:22.795Z,57.03
2019-04-29T09:24:22.773Z,56.52
2019-04-29T09:25:26.374Z,56.74
2019-04-29T09:26:24.340Z,56.82
2019-04-29T09:27:22.805Z,57.35
2019-04-29T09:28:27.805Z,57.86
2019-04-29T09:29:23.736Z,57.46
2019-04-29T09:30:22.703Z,57.05
2019-04-29T09:31:22.693Z,57.35
2019-04-29T09:32:22.683Z,57.46
2019-04-29T09:33:22.715Z,57.12
2019-04-29T09:34:24.738Z,55.93
2019-04-29T09:35:22.653Z,57.03
2019-04-29T09:36:22.645Z,56.82
2019-04-29T09:37:23.053Z,56.52
2019-04-29T09:38:22.632Z,56.41
2019-04-29T09:39:22.633Z,55.78
2019-04-29T09:40:22.605Z,55.80
2019-04-29T09:41:22.594Z,56.70
2019-04-29T09:42:22.585Z,56.59
2019-04-29T09:43:25.845Z,56.54
2019-04-29T09:44:22.565Z,56.13
2019-04-29T09:45:24.557Z,56.44
2019-04-29T09:46:22.542Z,55.10
2019-04-29T09:47:22.522Z,55.10
2019-04-29T09:48:22.725Z,54.82
2019-04-29T09:49:22.542Z,54.31
2019-04-29T09:50:22.654Z,54.89
2019-04-29T09:51:27.716Z,54.28
2019-04-29T09:52:23.462Z,54.49
2019-04-29T09:53:22.657Z,53.85
2019-04-29T09:54:22.557Z,54.26
2019-04-29T09:55:22.524Z,53.45
2019-04-29T09:56:22.518Z,54.38
2019-04-29T09:57:22.425Z,53.67
2019-04-29T09:58:22.404Z,53.07
2019-04-29T09:59:22.392Z,53.47
2019-04-29T10:00:22.382Z,53.88
2019-04-29T10:01:22.373Z,53.88
2019-04-29T10:02:26.327Z,54.56
2019-04-29T10:03:23.355Z,53.96
2019-04-29T10:04:22.344Z,53.37
2019-04-29T10:05:22.345Z,53.78
2019-04-29T10:06:22.312Z,53.70
2019-04-29T10:07:22.319Z,53.60
2019-04-29T10:08:22.283Z,54.03
2019-04-29T10:09:22.302Z,53.96
2019-04-29T10:10:22.263Z,54.16
2019-04-29T10:11:22.274Z,54.16
2019-04-29T10:12:22.252Z,54.97
2019-04-29T10:13:22.255Z,54.13
2019-04-29T10:14:22.233Z,54.53
2019-04-29T10:15:22.241Z,54.00
2019-04-29T10:16:22.202Z,54.08
2019-04-29T10:17:22.202Z,53.58
2019-04-29T10:18:25.005Z,53.65
2019-04-29T10:19:23.175Z,54.36
2019-04-29T10:20:22.175Z,53.12
2019-04-29T10:21:23.376Z,52.33
2019-04-29T10:22:22.185Z,51.62
2019-04-29T10:23:22.131Z,52.44
2019-04-29T10:24:22.132Z,52.92
2019-04-29T10:25:22.163Z,52.11
2019-04-29T10:26:22.129Z,51.93
2019-04-29T10:27:22.094Z,52.44
2019-04-29T10:28:22.072Z,53.05
2019-04-29T10:29:22.062Z,52.23
2019-04-29T10:30:22.067Z,52.01
2019-04-29T10:31:22.062Z,52.01
2019-04-29T10:32:22.032Z,51.30
2019-04-29T10:33:23.126Z,51.81
2019-04-29T10:34:22.024Z,52.33
2019-04-29T10:35:22.009Z,51.93
2019-04-29T10:36:22.005Z,52.72
2019-04-29T10:37:23.721Z,52.92
2019-04-29T10:38:22.962Z,52.59
2019-04-29T10:39:22.746Z,51.88
2019-04-29T10:40:21.933Z,51.78
2019-04-29T10:41:21.942Z,51.17
2019-04-29T10:42:23.091Z,51.65
2019-04-29T10:43:21.926Z,51.48
2019-04-29T10:44:21.903Z,50.97
2019-04-29T10:45:21.888Z,51.42
2019-04-29T10:46:21.877Z,52.23
2019-04-29T10:47:21.873Z,52.84
2019-04-29T10:48:21.853Z,53.05
2019-04-29T10:49:21.864Z,52.21
2019-04-29T10:50:23.822Z,52.89
2019-04-29T10:51:23.293Z,51.28
2019-04-29T10:52:22.814Z,51.98
2019-04-29T10:53:21.805Z,52.06
2019-04-29T10:54:21.808Z,52.39
2019-04-29T10:55:21.783Z,51.40
2019-04-29T10:56:21.762Z,52.28
2019-04-29T10:57:21.760Z,51.88
2019-04-29T10:58:26.635Z,50.54
2019-04-29T10:59:35.343Z,50.57
2019-04-29T11:00:23.471Z,50.67
2019-04-29T11:01:21.702Z,51.78
2019-04-29T11:02:21.721Z,51.50
2019-04-29T11:03:24.984Z,52.41
2019-04-29T11:04:21.695Z,52.61
2019-04-29T11:05:21.673Z,52.51
2019-04-29T11:06:21.663Z,52.11
2019-04-29T11:07:26.490Z,52.41
2019-04-29T11:08:22.656Z,52.41
2019-04-29T11:09:21.653Z,51.78
2019-04-29T11:10:25.312Z,51.98
2019-04-29T11:11:23.430Z,52.08
2019-04-29T11:12:22.605Z,51.28
2019-04-29T11:13:21.585Z,51.45
2019-04-29T11:14:24.686Z,50.74
2019-04-29T11:15:21.565Z,50.52
2019-04-29T11:16:22.861Z,50.34
2019-04-29T11:17:22.545Z,50.84
2019-04-29T11:18:23.294Z,51.25
2019-04-29T11:19:21.524Z,51.35
2019-04-29T11:20:21.714Z,49.22
2019-04-29T11:21:25.095Z,50.64
2019-04-29T11:22:22.492Z,50.84
2019-04-29T11:23:21.482Z,51.55
2019-04-29T11:24:21.465Z,51.32
2019-04-29T11:25:21.452Z,49.69
2019-04-29T11:26:21.444Z,49.16
2019-04-29T11:27:21.433Z,48.55
2019-04-29T11:28:21.423Z,48.35
2019-04-29T11:29:22.225Z,48.78
2019-04-29T11:30:22.395Z,48.58
2019-04-29T11:31:21.400Z,49.48
2019-04-29T11:32:24.793Z,48.65
2019-04-29T11:33:22.382Z,49.44
2019-04-29T11:34:21.352Z,48.93
2019-04-29T11:35:24.512Z,48.30
2019-04-29T11:36:22.322Z,48.75
2019-04-29T11:37:23.853Z,48.98
2019-04-29T11:38:21.315Z,49.41
2019-04-29T11:39:21.314Z,49.21
2019-04-29T11:40:26.085Z,49.93
2019-04-29T11:41:22.285Z,50.44
2019-04-29T11:42:21.276Z,49.51
2019-04-29T11:43:21.255Z,49.58
2019-04-29T11:44:21.861Z,48.37
2019-04-29T11:45:21.235Z,49.10
2019-04-29T11:46:21.277Z,49.51
2019-04-29T11:47:25.222Z,49.58
2019-04-29T11:48:22.191Z,49.46
2019-04-29T11:49:21.222Z,49.24
2019-04-29T11:50:21.175Z,48.75
2019-04-29T11:51:21.319Z,48.78
2019-04-29T11:52:23.735Z,48.98
2019-04-29T11:53:22.142Z,49.38
2019-04-29T11:54:21.268Z,48.35
2019-04-29T11:55:21.140Z,48.85
2019-04-29T11:56:21.140Z,47.14
2019-04-29T11:57:21.125Z,48.33
2019-04-29T11:58:21.105Z,47.62
2019-04-29T11:59:21.176Z,46.61
2019-04-29T12:00:21.121Z,46.89
2019-04-29T12:01:21.065Z,46.79
2019-04-29T12:02:24.278Z,47.22
2019-04-29T12:03:22.085Z,47.32
2019-04-29T12:04:21.055Z,48.33
2019-04-29T12:05:21.145Z,48.63
2019-04-29T12:06:21.879Z,48.00
2019-04-29T12:07:21.293Z,47.80
2019-04-29T12:08:21.033Z,47.62
2019-04-29T12:09:20.988Z,49.13
2019-04-29T12:10:21.735Z,48.53
2019-04-29T12:11:21.007Z,48.43
2019-04-29T12:12:21.038Z,48.33
2019-04-29T12:13:27.128Z,47.62
2019-04-29T12:14:22.382Z,47.32
2019-04-29T12:15:20.903Z,47.64
2019-04-29T12:16:24.647Z,48.35
2019-04-29T12:17:21.885Z,48.96
2019-04-29T12:18:20.869Z,48.55
2019-04-29T12:19:21.249Z,48.45
2019-04-29T12:20:20.885Z,48.37
2019-04-29T12:21:20.849Z,49.16
2019-04-29T12:22:30.349Z,49.56
2019-04-29T12:23:21.811Z,48.65
2019-04-29T12:24:20.802Z,48.68
2019-04-29T12:25:22.924Z,50.39
2019-04-29T12:26:21.796Z,50.19
2019-04-29T12:27:21.724Z,49.89
2019-04-29T12:28:20.796Z,49.99
2019-04-29T12:29:20.798Z,48.78
2019-04-29T12:30:20.736Z,49.91
2019-04-29T12:31:20.737Z,49.71
2019-04-29T12:32:24.697Z,50.54
2019-04-29T12:33:20.693Z,51.15
2019-04-29T12:34:20.723Z,50.32
2019-04-29T12:35:21.527Z,50.52
2019-04-29T12:36:20.693Z,50.12
2019-04-29T12:37:21.233Z,49.99
2019-04-29T12:38:20.653Z,49.91
2019-04-29T12:39:42.223Z,50.29
2019-04-29T12:40:21.626Z,49.91
2019-04-29T12:41:21.458Z,50.42
2019-04-29T12:42:20.647Z,50.26
2019-04-29T12:43:20.594Z,51.25
2019-04-29T12:44:34.407Z,50.04
2019-04-29T12:45:21.598Z,50.77
2019-04-29T12:46:20.579Z,50.84
2019-04-29T12:47:26.531Z,50.52
2019-04-29T12:48:24.850Z,49.13
2019-04-29T12:49:20.544Z,50.14
2019-04-29T12:50:21.785Z,50.01
2019-04-29T12:51:20.523Z,49.58
2019-04-29T12:52:20.503Z,49.76